Time;durP1;ratioP1;P1;durP2;ratioP2;P2;SDS_P1;SDS_P2;PMS_P1;PMS_P2;Temp;Humidity;BMP_temperature;BMP_pressure;BME280_temperature;BME280_humidity;BME280_pressure;Samples;Min_cycle;Max_cycle;Signal;HPM_P1;HPM_P2
2023/10/05 00:01:44;;;;;;;;;;;;;;;;;;5051276;28;904;-68
2023/10/05 00:03:39;;;;;;;;;;;;;;;;;;5042976;28;1516;-69
2023/10/05 00:06:14;;;;;;;;;;;;;;;;;;5050670;28;1968;-69
2023/10/05 00:08:47;;;;;;;;;;;;;;;;;;5051475;28;818;-69
2023/10/05 00:11:22;;;;;;;;;;;;;;;;;;5051403;28;810;-69
2023/10/05 00:13:49;;;;;;;;;;;;;;;;;;5050930;28;916;-69
2023/10/05 00:16:20;;;;;;;;;;;;;;;;;;5049859;28;860;-69
2023/10/05 00:18:45;;;;;;;;;;;;;;;;;;5050570;28;927;-68
2023/10/05 00:21:11;;;;;;;;;;;;;;;;;;5050649;28;971;-69
2023/10/05 00:23:36;;;;;;;;;;;;;;;;;;5050525;28;845;-69
2023/10/05 00:26:02;;;;;;;;;;;;;;;;;;5049960;28;1961;-69
2023/10/05 00:28:27;;;;;;;;;;;;;;;;;;5050707;28;887;-68
2023/10/05 00:30:54;;;;;;;;;;;;;;;;;;5050413;28;987;-69
2023/10/05 00:33:20;;;;;;;;;;;;;;;;;;5050181;28;869;-69
2023/10/05 00:35:46;;;;;;;;;;;;;;;;;;5050600;28;893;-68
2023/10/05 00:38:16;;;;;;;;;;;;;;;;;;5050277;28;946;-69
2023/10/05 00:41:08;;;;;;;;;;;;;;;;;;5052984;28;1188;-69
2023/10/05 00:43:33;;;;;;;;;;;;;;;;;;5049610;28;1080;-69
2023/10/05 00:45:59;;;;;;;;;;;;;;;;;;5068023;28;1906;-69
2023/10/05 00:50:56;;;;;;;;;;;;;;;;;;5060737;28;1219;-68
2023/10/05 00:53:21;;;;;;;;;;;;;;;;;;5073585;28;1144;-69
2023/10/05 00:55:51;;;;;;;;;;;;;;;;;;5073946;28;861;-69
2023/10/05 00:58:17;;;;;;;;;;;;;;;;;;5074161;28;905;-69
2023/10/05 01:00:53;;;;;;;;;;;;;;;;;;5074314;28;849;-68
2023/10/05 01:03:23;;;;;;;;;;;;;;;;;;5074160;28;888;-68
2023/10/05 01:05:56;;;;;;;;;;;;;;;;;;5073760;28;1906;-68
2023/10/05 01:08:23;;;;;;;;;;;;;;;;;;5074047;28;825;-68
2023/10/05 01:10:51;;;;;;;;;;;;;;;;;;5073949;28;848;-69
2023/10/05 01:13:33;;;;;;;;;;;;;;;;;;5073091;28;840;-69
2023/10/05 01:15:59;;;;;;;;;;;;;;;;;;5074616;28;859;-69
2023/10/05 01:18:25;;;;;;;;;;;;;;;;;;5073931;28;1199;-68
2023/10/05 01:20:51;;;;;;;;;;;;;;;;;;5074688;28;879;-69
2023/10/05 01:23:16;;;;;;;;;;;;;;;;;;5074919;28;857;-69
2023/10/05 01:25:42;;;;;;;;;;;;;;;;;;5074669;28;1906;-69
2023/10/05 01:28:07;;;;;;;;;;;;;;;;;;5074893;28;845;-70
2023/10/05 01:30:37;;;;;;;;;;;;;;;;;;5075120;28;832;-68
2023/10/05 01:33:03;;;;;;;;;;;;;;;;;;5072516;28;1006;-69
2023/10/05 01:35:28;;;;;;;;;;;;;;;;;;5073688;28;684;-68
2023/10/05 01:37:54;;;;;;;;;;;;;;;;;;5074208;28;912;-68
2023/10/05 01:40:23;;;;;;;;;;;;;;;;;;5073751;28;947;-68
2023/10/05 01:42:51;;;;;;;;;;;;;;;;;;5072519;28;1330;-69
2023/10/05 01:45:21;;;;;;;;;;;;;;;;;;5073339;28;1955;-69
2023/10/05 01:47:46;;;;;;;;;;;;;;;;;;5072803;28;1306;-69
2023/10/05 01:50:26;;;;;;;;;;;;;;;;;;5072452;28;868;-67
2023/10/05 01:53:15;;;;;;;;;;;;;;;;;;5072947;28;944;-68
2023/10/05 01:55:43;;;;;;;;;;;;;;;;;;5073558;28;1011;-68
2023/10/05 01:58:13;;;;;;;;;;;;;;;;;;5072526;28;1046;-68
2023/10/05 02:00:39;;;;;;;;;;;;;;;;;;5073321;28;952;-68
2023/10/05 02:03:07;;;;;;;;;;;;;;;;;;5073178;28;865;-68
2023/10/05 02:05:33;;;;;;;;;;;;;;;;;;5071703;28;1953;-68
2023/10/05 02:07:58;;;;;;;;;;;;;;;;;;5072641;28;1007;-68
2023/10/05 02:10:23;;;;;;;;;;;;;;;;;;5073036;28;951;-68
2023/10/05 02:12:53;;;;;;;;;;;;;;;;;;5071453;28;864;-68
2023/10/05 02:15:18;;;;;;;;;;;;;;;;;;5072979;28;861;-68
2023/10/05 02:17:47;;;;;;;;;;;;;;;;;;5071352;28;1200;-68
2023/10/05 02:20:38;;;;;;;;;;;;;;;;;;5072250;28;875;-68
2023/10/05 02:22:58;;;;;;;;;;;;;;;;;;5072168;28;1446;-68
2023/10/05 02:25:33;;;;;;;;;;;;;;;;;;5072397;28;1895;-68
2023/10/05 02:27:58;;;;;;;;;;;;;;;;;;5071933;28;861;-68
2023/10/05 02:30:27;;;;;;;;;;;;;;;;;;5072537;28;1169;-68
2023/10/05 02:32:53;;;;;;;;;;;;;;;;;;5072569;28;884;-68
2023/10/05 02:35:19;;;;;;;;;;;;;;;;;;5071306;28;983;-68
2023/10/05 02:37:50;;;;;;;;;;;;;;;;;;5072188;28;932;-68
2023/10/05 02:40:16;;;;;;;;;;;;;;;;;;5071983;28;932;-68
2023/10/05 02:42:41;;;;;;;;;;;;;;;;;;5072403;28;846;-68
2023/10/05 02:45:09;;;;;;;;;;;;;;;;;;5070827;28;1418;-68
2023/10/05 02:47:34;;;;;;;;;;;;;;;;;;5071953;28;1897;-68
2023/10/05 02:49:59;;;;;;;;;;;;;;;;;;5071745;28;871;-67
2023/10/05 02:52:26;;;;;;;;;;;;;;;;;;5071914;28;849;-68
2023/10/05 02:54:51;;;;;;;;;;;;;;;;;;5071706;28;848;-67
2023/10/05 02:57:16;;;;;;;;;;;;;;;;;;5072343;28;900;-67
2023/10/05 02:59:43;;;;;;;;;;;;;;;;;;5072139;28;833;-68
2023/10/05 03:02:10;;;;;;;;;;;;;;;;;;5070991;28;946;-68
2023/10/05 03:04:47;;;;;;;;;;;;;;;;;;5072073;28;867;-68
2023/10/05 03:07:16;;;;;;;;;;;;;;;;;;5072444;28;1890;-67
2023/10/05 03:09:42;;;;;;;;;;;;;;;;;;5072421;28;925;-67
2023/10/05 03:12:08;;;;;;;;;;;;;;;;;;5072164;28;817;-68
2023/10/05 03:14:34;;;;;;;;;;;;;;;;;;5072935;28;926;-67
2023/10/05 03:17:04;;;;;;;;;;;;;;;;;;5072802;28;876;-67
2023/10/05 03:19:29;;;;;;;;;;;;;;;;;;5072488;28;1054;-67
2023/10/05 03:21:58;;;;;;;;;;;;;;;;;;5072704;28;864;-67
2023/10/05 03:24:24;;;;;;;;;;;;;;;;;;5071312;28;1385;-67
2023/10/05 03:26:54;;;;;;;;;;;;;;;;;;5054331;28;2446;-67
2023/10/05 03:29:21;;;;;;;;;;;;;;;;;;5071239;28;910;-67
2023/10/05 03:31:53;;;;;;;;;;;;;;;;;;5070462;28;849;-67
2023/10/05 03:34:26;;;;;;;;;;;;;;;;;;5071928;28;916;-67
2023/10/05 03:36:52;;;;;;;;;;;;;;;;;;5071666;28;876;-67
2023/10/05 03:39:17;;;;;;;;;;;;;;;;;;5070935;28;959;-67
2023/10/05 03:41:43;;;;;;;;;;;;;;;;;;5072097;28;845;-67
2023/10/05 03:44:15;;;;;;;;;;;;;;;;;;5069875;28;1472;-67
2023/10/05 03:46:40;;;;;;;;;;;;;;;;;;5069824;28;1875;-68
2023/10/05 03:49:06;;;;;;;;;;;;;;;;;;5069746;28;1194;-68
2023/10/05 03:51:32;;;;;;;;;;;;;;;;;;5070919;28;892;-67
2023/10/05 03:53:58;;;;;;;;;;;;;;;;;;5070580;28;932;-68
2023/10/05 03:56:27;;;;;;;;;;;;;;;;;;5071008;28;908;-68
2023/10/05 03:58:52;;;;;;;;;;;;;;;;;;5069203;28;1245;-68
2023/10/05 04:01:18;;;;;;;;;;;;;;;;;;5069777;28;829;-67
2023/10/05 04:03:44;;;;;;;;;;;;;;;;;;5071128;28;828;-67
2023/10/05 04:06:17;;;;;;;;;;;;;;;;;;5069056;28;1914;-67
2023/10/05 04:08:47;;;;;;;;;;;;;;;;;;5071303;28;864;-67
2023/10/05 04:11:13;;;;;;;;;;;;;;;;;;5070351;28;1072;-67
2023/10/05 04:13:38;;;;;;;;;;;;;;;;;;5071186;28;924;-67
2023/10/05 04:16:08;;;;;;;;;;;;;;;;;;5074770;28;844;-67
2023/10/05 04:18:33;;;;;;;;;;;;;;;;;;5074782;28;900;-68
2023/10/05 04:20:58;;;;;;;;;;;;;;;;;;5075121;28;904;-67
2023/10/05 04:23:27;;;;;;;;;;;;;;;;;;5075203;28;876;-67
2023/10/05 04:25:54;;;;;;;;;;;;;;;;;;5074780;28;1955;-67
2023/10/05 04:28:31;;;;;;;;;;;;;;;;;;5073935;28;837;-67
2023/10/05 04:30:57;;;;;;;;;;;;;;;;;;5074917;28;868;-67
2023/10/05 04:33:22;;;;;;;;;;;;;;;;;;5074777;28;841;-67
2023/10/05 04:35:51;;;;;;;;;;;;;;;;;;5074686;28;1055;-68
2023/10/05 04:38:22;;;;;;;;;;;;;;;;;;5074258;28;1204;-67
2023/10/05 04:40:50;;;;;;;;;;;;;;;;;;5071504;28;1215;-67
2023/10/05 04:43:16;;;;;;;;;;;;;;;;;;5054884;28;1192;-67
2023/10/05 04:45:42;;;;;;;;;;;;;;;;;;5069961;28;1902;-67
2023/10/05 04:48:11;;;;;;;;;;;;;;;;;;5074298;28;908;-67
2023/10/05 04:50:36;;;;;;;;;;;;;;;;;;5074533;28;907;-68
2023/10/05 04:53:01;;;;;;;;;;;;;;;;;;5072878;28;943;-67
2023/10/05 04:55:41;;;;;;;;;;;;;;;;;;5074436;28;1019;-67
2023/10/05 04:58:23;;;;;;;;;;;;;;;;;;5058485;28;705;-68
2023/10/05 05:00:53;;;;;;;;;;;;;;;;;;5073973;28;826;-68
2023/10/05 05:05:57;;;;;;;;;;;;;;;;;;5074090;28;1906;-67
2023/10/05 05:08:22;;;;;;;;;;;;;;;;;;5074943;28;896;-67
2023/10/05 05:10:48;;;;;;;;;;;;;;;;;;5075241;28;845;-67
2023/10/05 05:13:13;;;;;;;;;;;;;;;;;;5074843;28;868;-67
2023/10/05 05:15:38;;;;;;;;;;;;;;;;;;5075715;28;896;-67
2023/10/05 05:18:04;;;;;;;;;;;;;;;;;;5075153;28;801;-67
2023/10/05 05:20:29;;;;;;;;;;;;;;;;;;5074593;28;829;-67
2023/10/05 05:22:55;;;;;;;;;;;;;;;;;;5075159;28;895;-67
2023/10/05 05:25:20;;;;;;;;;;;;;;;;;;5074464;28;978;-67
2023/10/05 05:27:45;;;;;;;;;;;;;;;;;;5074841;28;1901;-67
2023/10/05 05:30:23;;;;;;;;;;;;;;;;;;5074164;28;853;-67
2023/10/05 05:32:49;;;;;;;;;;;;;;;;;;5073042;28;881;-68
2023/10/05 05:35:16;;;;;;;;;;;;;;;;;;5073997;28;1787;-67
2023/10/05 05:37:42;;;;;;;;;;;;;;;;;;5073954;28;968;-67
2023/10/05 05:40:12;;;;;;;;;;;;;;;;;;5073518;28;785;-68
2023/10/05 05:42:38;;;;;;;;;;;;;;;;;;5063557;28;1314;-68
2023/10/05 05:45:08;;;;;;;;;;;;;;;;;;5050855;28;1264;-67
2023/10/05 05:47:34;;;;;;;;;;;;;;;;;;5053596;28;1969;-68
2023/10/05 05:50:00;;;;;;;;;;;;;;;;;;5053166;28;971;-67
2023/10/05 05:52:26;;;;;;;;;;;;;;;;;;5053851;28;877;-67
2023/10/05 05:54:52;;;;;;;;;;;;;;;;;;5053572;28;817;-67
2023/10/05 05:57:20;;;;;;;;;;;;;;;;;;5053411;28;896;-68
2023/10/05 05:59:46;;;;;;;;;;;;;;;;;;5053190;28;892;-68
2023/10/05 06:02:11;;;;;;;;;;;;;;;;;;5052745;28;892;-68
2023/10/05 06:04:41;;;;;;;;;;;;;;;;;;5053160;28;844;-68
2023/10/05 06:07:13;;;;;;;;;;;;;;;;;;5052786;28;1886;-67
2023/10/05 06:09:45;;;;;;;;;;;;;;;;;;5053059;28;849;-67
2023/10/05 06:12:11;;;;;;;;;;;;;;;;;;5052546;28;921;-68
2023/10/05 06:14:37;;;;;;;;;;;;;;;;;;5052795;28;856;-68
2023/10/05 06:17:03;;;;;;;;;;;;;;;;;;5052845;28;833;-67
2023/10/05 06:19:28;;;;;;;;;;;;;;;;;;5053200;28;846;-67
2023/10/05 06:21:54;;;;;;;;;;;;;;;;;;5052640;28;809;-67
2023/10/05 06:24:20;;;;;;;;;;;;;;;;;;5051591;28;1259;-67
2023/10/05 06:26:45;;;;;;;;;;;;;;;;;;5052808;28;1914;-67
2023/10/05 06:29:11;;;;;;;;;;;;;;;;;;5052920;28;801;-67
2023/10/05 06:31:36;;;;;;;;;;;;;;;;;;5052308;28;864;-67
2023/10/05 06:34:04;;;;;;;;;;;;;;;;;;5052701;28;1600;-67
2023/10/05 06:36:29;;;;;;;;;;;;;;;;;;5052665;28;848;-67
2023/10/05 06:38:56;;;;;;;;;;;;;;;;;;5052702;28;873;-67
2023/10/05 06:41:22;;;;;;;;;;;;;;;;;;5052693;28;850;-67
2023/10/05 06:43:48;;;;;;;;;;;;;;;;;;5052557;28;903;-68
2023/10/05 06:46:20;;;;;;;;;;;;;;;;;;5052179;28;1901;-67
2023/10/05 06:48:45;;;;;;;;;;;;;;;;;;5052662;28;915;-68
2023/10/05 06:51:13;;;;;;;;;;;;;;;;;;5052421;28;809;-67
2023/10/05 06:53:38;;;;;;;;;;;;;;;;;;5065548;28;1258;-67
2023/10/05 06:56:04;;;;;;;;;;;;;;;;;;5070127;28;912;-67
2023/10/05 06:58:29;;;;;;;;;;;;;;;;;;5072604;28;854;-67
2023/10/05 07:00:54;;;;;;;;;;;;;;;;;;5073041;28;946;-67
2023/10/05 07:03:20;;;;;;;;;;;;;;;;;;5071143;28;1576;-68
2023/10/05 07:05:46;;;;;;;;;;;;;;;;;;5072215;28;1909;-67
2023/10/05 07:08:14;;;;;;;;;;;;;;;;;;5071905;28;908;-67
2023/10/05 07:10:39;;;;;;;;;;;;;;;;;;5072294;28;829;-68
2023/10/05 07:13:08;;;;;;;;;;;;;;;;;;5070183;28;1215;-68
2023/10/05 07:15:34;;;;;;;;;;;;;;;;;;5071949;28;911;-67
2023/10/05 07:17:59;;;;;;;;;;;;;;;;;;5071296;28;979;-67
2023/10/05 07:20:24;;;;;;;;;;;;;;;;;;5071034;28;1140;-68
2023/10/05 07:22:50;;;;;;;;;;;;;;;;;;5071831;28;837;-67
2023/10/05 07:25:17;;;;;;;;;;;;;;;;;;5072226;28;837;-68
2023/10/05 07:27:42;;;;;;;;;;;;;;;;;;5072859;28;1969;-68
2023/10/05 07:30:10;;;;;;;;;;;;;;;;;;5072208;28;880;-68
2023/10/05 07:32:36;;;;;;;;;;;;;;;;;;5072442;28;857;-68
2023/10/05 07:35:02;;;;;;;;;;;;;;;;;;5070933;28;1445;-68
2023/10/05 07:37:27;;;;;;;;;;;;;;;;;;5073072;28;801;-68
2023/10/05 07:39:52;;;;;;;;;;;;;;;;;;5072521;28;1001;-68
2023/10/05 07:42:18;;;;;;;;;;;;;;;;;;5072158;28;872;-68
2023/10/05 07:44:44;;;;;;;;;;;;;;;;;;5071859;28;828;-67
2023/10/05 07:47:11;;;;;;;;;;;;;;;;;;5052833;28;2214;-67
2023/10/05 07:49:36;;;;;;;;;;;;;;;;;;5071081;28;836;-67
2023/10/05 07:52:03;;;;;;;;;;;;;;;;;;5071030;28;844;-67
2023/10/05 07:54:30;;;;;;;;;;;;;;;;;;5071786;28;888;-68
2023/10/05 07:56:55;;;;;;;;;;;;;;;;;;5069709;28;849;-68
2023/10/05 07:59:21;;;;;;;;;;;;;;;;;;5070917;28;875;-67
2023/10/05 08:01:49;;;;;;;;;;;;;;;;;;5070856;28;926;-68
2023/10/05 08:04:14;;;;;;;;;;;;;;;;;;5070021;28;1428;-68
2023/10/05 08:06:43;;;;;;;;;;;;;;;;;;5071295;28;1909;-67
2023/10/05 08:09:13;;;;;;;;;;;;;;;;;;5070692;28;860;-67
2023/10/05 08:11:40;;;;;;;;;;;;;;;;;;5071512;28;809;-67
2023/10/05 08:14:07;;;;;;;;;;;;;;;;;;5071249;28;853;-68
2023/10/05 08:16:32;;;;;;;;;;;;;;;;;;5071280;28;820;-67
2023/10/05 08:18:57;;;;;;;;;;;;;;;;;;5070672;28;829;-68
2023/10/05 08:21:22;;;;;;;;;;;;;;;;;;5070970;28;840;-68
2023/10/05 08:23:51;;;;;;;;;;;;;;;;;;5070232;28;1428;-68
2023/10/05 08:26:16;;;;;;;;;;;;;;;;;;5071156;28;1906;-68
2023/10/05 08:28:42;;;;;;;;;;;;;;;;;;5071394;28;960;-68
2023/10/05 08:31:07;;;;;;;;;;;;;;;;;;5071386;28;896;-68
2023/10/05 08:33:35;;;;;;;;;;;;;;;;;;5059300;28;1218;-68
2023/10/05 08:36:06;;;;;;;;;;;;;;;;;;5071381;28;1053;-68
2023/10/05 08:38:31;;;;;;;;;;;;;;;;;;5071868;28;836;-68
2023/10/05 08:41:00;;;;;;;;;;;;;;;;;;5071131;28;927;-68
2023/10/05 08:43:25;;;;;;;;;;;;;;;;;;5070835;28;832;-67
2023/10/05 08:45:51;;;;;;;;;;;;;;;;;;5070698;28;1902;-68
2023/10/05 08:48:28;;;;;;;;;;;;;;;;;;5070699;28;920;-67
2023/10/05 08:50:55;;;;;;;;;;;;;;;;;;5070598;28;884;-68
2023/10/05 08:53:20;;;;;;;;;;;;;;;;;;5069939;28;826;-68
2023/10/05 08:55:46;;;;;;;;;;;;;;;;;;5070545;28;852;-68
2023/10/05 08:58:18;;;;;;;;;;;;;;;;;;5070264;28;761;-68
2023/10/05 09:00:43;;;;;;;;;;;;;;;;;;5073024;28;856;-68
2023/10/05 09:03:28;;;;;;;;;;;;;;;;;;5073675;28;884;-67
2023/10/05 09:06:11;;;;;;;;;;;;;;;;;;5074837;28;1984;-68
2023/10/05 09:08:41;;;;;;;;;;;;;;;;;;5074588;28;976;-68
2023/10/05 09:11:09;;;;;;;;;;;;;;;;;;5073676;28;924;-68
2023/10/05 09:13:47;;;;;;;;;;;;;;;;;;5074198;28;896;-68
2023/10/05 09:16:22;;;;;;;;;;;;;;;;;;5074531;28;876;-68
2023/10/05 09:18:48;;;;;;;;;;;;;;;;;;5075130;28;873;-68
2023/10/05 09:21:18;;;;;;;;;;;;;;;;;;5074616;28;849;-68
2023/10/05 09:23:43;;;;;;;;;;;;;;;;;;5074896;28;809;-68
2023/10/05 09:26:22;;;;;;;;;;;;;;;;;;5074301;28;1914;-67
2023/10/05 09:28:51;;;;;;;;;;;;;;;;;;5074980;28;821;-67
2023/10/05 09:31:19;;;;;;;;;;;;;;;;;;5074104;28;836;-67
2023/10/05 09:33:54;;;;;;;;;;;;;;;;;;5075000;28;856;-67
2023/10/05 09:36:19;;;;;;;;;;;;;;;;;;5072846;28;1606;-68
2023/10/05 09:38:46;;;;;;;;;;;;;;;;;;5074913;28;871;-67
2023/10/05 09:41:15;;;;;;;;;;;;;;;;;;5073917;28;848;-68
2023/10/05 09:43:42;;;;;;;;;;;;;;;;;;5074966;28;833;-67
2023/10/05 09:46:11;;;;;;;;;;;;;;;;;;5073348;28;2038;-67
2023/10/05 09:48:37;;;;;;;;;;;;;;;;;;5073980;28;864;-68
2023/10/05 09:51:10;;;;;;;;;;;;;;;;;;5073150;28;848;-67
2023/10/05 09:53:37;;;;;;;;;;;;;;;;;;5072066;28;868;-67
2023/10/05 09:56:03;;;;;;;;;;;;;;;;;;5073456;28;940;-67
2023/10/05 09:58:29;;;;;;;;;;;;;;;;;;5073743;28;840;-67
2023/10/05 10:01:10;;;;;;;;;;;;;;;;;;5074161;28;849;-67
2023/10/05 10:03:36;;;;;;;;;;;;;;;;;;5072597;28;1165;-67
2023/10/05 10:06:08;;;;;;;;;;;;;;;;;;5073391;28;1898;-67
2023/10/05 10:08:42;;;;;;;;;;;;;;;;;;5073785;28;853;-67
2023/10/05 10:11:18;;;;;;;;;;;;;;;;;;5072794;28;908;-67
2023/10/05 10:13:50;;;;;;;;;;;;;;;;;;5073510;28;1056;-67
2023/10/05 10:16:17;;;;;;;;;;;;;;;;;;5072744;28;896;-66
2023/10/05 10:18:45;;;;;;;;;;;;;;;;;;5073436;28;900;-67
2023/10/05 10:21:24;;;;;;;;;;;;;;;;;;5072714;28;932;-67
2023/10/05 10:24:04;;;;;;;;;;;;;;;;;;5073407;28;836;-67
2023/10/05 10:26:30;;;;;;;;;;;;;;;;;;5071512;28;1899;-67
2023/10/05 10:31:25;;;;;;;;;;;;;;;;;;5071031;28;717;-67
2023/10/05 10:33:51;;;;;;;;;;;;;;;;;;5072389;28;943;-67
2023/10/05 10:36:35;;;;;;;;;;;;;;;;;;5072109;28;829;-67
2023/10/05 10:39:21;;;;;;;;;;;;;;;;;;5072536;28;904;-67
2023/10/05 10:42:04;;;;;;;;;;;;;;;;;;5072380;28;1480;-67
2023/10/05 10:47:18;;;;;;;;;;;;;;;;;;5071420;28;1902;-67
2023/10/05 10:50:14;;;;;;;;;;;;;;;;;;5072179;28;872;-68
2023/10/05 10:52:40;;;;;;;;;;;;;;;;;;5071350;28;880;-68
2023/10/05 10:55:09;;;;;;;;;;;;;;;;;;5071726;28;809;-67
2023/10/05 10:57:36;;;;;;;;;;;;;;;;;;5072176;28;820;-67
2023/10/05 11:02:47;;;;;;;;;;;;;;;;;;5071727;28;769;-68
2023/10/05 11:05:16;;;;;;;;;;;;;;;;;;5070573;28;944;-68
2023/10/05 11:07:42;;;;;;;;;;;;;;;;;;5072718;28;1926;-68
2023/10/05 11:10:18;;;;;;;;;;;;;;;;;;5072410;28;793;-68
2023/10/05 11:12:44;;;;;;;;;;;;;;;;;;5072754;28;1010;-68
2023/10/05 11:15:11;;;;;;;;;;;;;;;;;;5072193;28;853;-68
2023/10/05 11:17:36;;;;;;;;;;;;;;;;;;5073338;28;842;-68
2023/10/05 11:20:17;;;;;;;;;;;;;;;;;;5072556;28;828;-68
2023/10/05 11:22:43;;;;;;;;;;;;;;;;;;5071240;28;1018;-67
2023/10/05 11:25:14;;;;;;;;;;;;;;;;;;5070262;28;841;-68
2023/10/05 11:27:48;;;;;;;;;;;;;;;;;;5070409;28;1910;-68
2023/10/05 11:30:18;;;;;;;;;;;;;;;;;;5071045;28;876;-68
2023/10/05 11:33:05;;;;;;;;;;;;;;;;;;5070388;28;1590;-68
2023/10/05 11:35:40;;;;;;;;;;;;;;;;;;5071792;28;858;-67
2023/10/05 11:38:06;;;;;;;;;;;;;;;;;;5071872;28;880;-68
2023/10/05 11:40:34;;;;;;;;;;;;;;;;;;5071695;28;873;-68
2023/10/05 11:43:06;;;;;;;;;;;;;;;;;;5072052;28;875;-68
2023/10/05 11:45:33;;;;;;;;;;;;;;;;;;5072360;28;786;-68
2023/10/05 11:47:59;;;;;;;;;;;;;;;;;;5071642;28;1897;-68
2023/10/05 11:50:32;;;;;;;;;;;;;;;;;;5071670;28;879;-68
2023/10/05 11:52:58;;;;;;;;;;;;;;;;;;5071914;28;936;-68
2023/10/05 11:55:23;;;;;;;;;;;;;;;;;;5071295;28;856;-68
2023/10/05 11:57:48;;;;;;;;;;;;;;;;;;5071522;28;884;-68
2023/10/05 12:00:16;;;;;;;;;;;;;;;;;;5071101;28;856;-67
2023/10/05 12:02:43;;;;;;;;;;;;;;;;;;5071301;28;821;-68
2023/10/05 12:05:09;;;;;;;;;;;;;;;;;;5070946;28;953;-68
2023/10/05 12:07:34;;;;;;;;;;;;;;;;;;5071685;28;1914;-68
2023/10/05 12:10:00;;;;;;;;;;;;;;;;;;5071039;28;1062;-68
2023/10/05 12:12:25;;;;;;;;;;;;;;;;;;5069604;28;856;-68
2023/10/05 12:14:51;;;;;;;;;;;;;;;;;;5069557;28;758;-68
2023/10/05 12:17:17;;;;;;;;;;;;;;;;;;5070460;28;1009;-68
2023/10/05 12:19:42;;;;;;;;;;;;;;;;;;5071490;28;860;-68
2023/10/05 12:22:13;;;;;;;;;;;;;;;;;;5070882;28;821;-68
2023/10/05 12:24:39;;;;;;;;;;;;;;;;;;5070871;28;1236;-68
2023/10/05 12:27:13;;;;;;;;;;;;;;;;;;5071186;28;1902;-68
2023/10/05 12:29:42;;;;;;;;;;;;;;;;;;5071311;28;868;-68
2023/10/05 12:32:13;;;;;;;;;;;;;;;;;;5070408;28;884;-68
2023/10/05 12:34:41;;;;;;;;;;;;;;;;;;5071540;28;946;-68
2023/10/05 12:37:08;;;;;;;;;;;;;;;;;;5074511;28;848;-68
2023/10/05 12:39:33;;;;;;;;;;;;;;;;;;5075176;28;912;-68
2023/10/05 12:42:00;;;;;;;;;;;;;;;;;;5074518;28;947;-68
2023/10/05 12:44:27;;;;;;;;;;;;;;;;;;5074541;28;888;-68
2023/10/05 12:46:53;;;;;;;;;;;;;;;;;;5074791;28;1890;-68
2023/10/05 12:49:18;;;;;;;;;;;;;;;;;;5074102;28;1058;-68
2023/10/05 12:51:44;;;;;;;;;;;;;;;;;;5074471;28;951;-68
2023/10/05 12:54:18;;;;;;;;;;;;;;;;;;5074139;28;844;-69
2023/10/05 12:56:44;;;;;;;;;;;;;;;;;;5074490;28;952;-68
2023/10/05 12:59:09;;;;;;;;;;;;;;;;;;5073892;28;896;-68
2023/10/05 13:01:35;;;;;;;;;;;;;;;;;;5074834;28;829;-69
2023/10/05 13:04:01;;;;;;;;;;;;;;;;;;5075224;28;970;-68
2023/10/05 13:06:27;;;;;;;;;;;;;;;;;;5074955;28;1980;-69
2023/10/05 13:08:56;;;;;;;;;;;;;;;;;;5057553;28;1345;-68
2023/10/05 13:11:22;;;;;;;;;;;;;;;;;;5074660;28;991;-68
2023/10/05 13:13:48;;;;;;;;;;;;;;;;;;5074378;28;1060;-68
2023/10/05 13:16:13;;;;;;;;;;;;;;;;;;5075046;28;923;-68
2023/10/05 13:18:44;;;;;;;;;;;;;;;;;;5075088;28;891;-68
2023/10/05 13:21:11;;;;;;;;;;;;;;;;;;5074439;28;856;-69
2023/10/05 13:23:36;;;;;;;;;;;;;;;;;;5074303;28;884;-69
2023/10/05 13:26:06;;;;;;;;;;;;;;;;;;5074220;28;1902;-69
2023/10/05 13:28:31;;;;;;;;;;;;;;;;;;5074079;28;853;-68
2023/10/05 13:30:57;;;;;;;;;;;;;;;;;;5074542;28;955;-68
2023/10/05 13:33:28;;;;;;;;;;;;;;;;;;5072638;28;1835;-68
2023/10/05 13:35:54;;;;;;;;;;;;;;;;;;5074174;28;913;-68
2023/10/05 13:38:27;;;;;;;;;;;;;;;;;;5073614;28;993;-68
2023/10/05 13:40:58;;;;;;;;;;;;;;;;;;5074079;28;845;-68
2023/10/05 13:43:27;;;;;;;;;;;;;;;;;;5073601;28;801;-69
2023/10/05 13:45:53;;;;;;;;;;;;;;;;;;5073362;28;1938;-68
2023/10/05 13:48:19;;;;;;;;;;;;;;;;;;5072632;28;834;-68
2023/10/05 13:50:51;;;;;;;;;;;;;;;;;;5073416;28;872;-68
2023/10/05 13:53:16;;;;;;;;;;;;;;;;;;5072643;28;877;-68
2023/10/05 13:55:42;;;;;;;;;;;;;;;;;;5073153;28;907;-68
2023/10/05 13:58:10;;;;;;;;;;;;;;;;;;5073566;28;857;-68
2023/10/05 14:00:36;;;;;;;;;;;;;;;;;;5073229;28;898;-68
2023/10/05 14:03:02;;;;;;;;;;;;;;;;;;5073180;28;821;-68
2023/10/05 14:05:28;;;;;;;;;;;;;;;;;;5072873;28;1046;-69
2023/10/05 14:07:53;;;;;;;;;;;;;;;;;;5073703;28;1902;-68
2023/10/05 14:10:21;;;;;;;;;;;;;;;;;;5072780;28;964;-68
2023/10/05 14:12:46;;;;;;;;;;;;;;;;;;5073046;28;837;-68
2023/10/05 14:15:12;;;;;;;;;;;;;;;;;;5072652;28;923;-68
2023/10/05 14:17:37;;;;;;;;;;;;;;;;;;5073000;28;885;-68
2023/10/05 14:20:05;;;;;;;;;;;;;;;;;;5072906;28;899;-68
2023/10/05 14:22:33;;;;;;;;;;;;;;;;;;5071195;28;1570;-68
2023/10/05 14:25:06;;;;;;;;;;;;;;;;;;5073283;28;895;-68
2023/10/05 14:27:32;;;;;;;;;;;;;;;;;;5072485;28;1963;-68
2023/10/05 14:29:57;;;;;;;;;;;;;;;;;;5073153;28;808;-68
2023/10/05 14:32:23;;;;;;;;;;;;;;;;;;5071153;28;1290;-67
2023/10/05 14:34:52;;;;;;;;;;;;;;;;;;5072507;28;829;-68
2023/10/05 14:37:18;;;;;;;;;;;;;;;;;;5072880;28;1148;-73
2023/10/05 14:39:45;;;;;;;;;;;;;;;;;;5073846;28;900;-70
2023/10/05 14:42:10;;;;;;;;;;;;;;;;;;5073588;28;892;-69
2023/10/05 14:44:35;;;;;;;;;;;;;;;;;;5073650;28;828;-73
2023/10/05 14:47:07;;;;;;;;;;;;;;;;;;5072475;28;1906;-73
2023/10/05 14:49:32;;;;;;;;;;;;;;;;;;5072928;28;876;-72
2023/10/05 14:52:00;;;;;;;;;;;;;;;;;;5074145;28;876;-73
2023/10/05 14:54:26;;;;;;;;;;;;;;;;;;5074247;28;939;-69
2023/10/05 14:56:51;;;;;;;;;;;;;;;;;;5074218;28;880;-72
2023/10/05 14:59:17;;;;;;;;;;;;;;;;;;5072493;28;1599;-71
2023/10/05 15:01:42;;;;;;;;;;;;;;;;;;5074003;28;943;-72
2023/10/05 15:04:08;;;;;;;;;;;;;;;;;;5074399;28;836;-72
2023/10/05 15:06:33;;;;;;;;;;;;;;;;;;5073804;28;1905;-71
2023/10/05 15:08:59;;;;;;;;;;;;;;;;;;5074660;28;860;-72
2023/10/05 15:11:26;;;;;;;;;;;;;;;;;;5073760;28;844;-69
2023/10/05 15:13:53;;;;;;;;;;;;;;;;;;5073596;28;915;-69
2023/10/05 15:16:18;;;;;;;;;;;;;;;;;;5073596;28;857;-68
2023/10/05 15:18:44;;;;;;;;;;;;;;;;;;5074036;28;991;-71
2023/10/05 15:21:09;;;;;;;;;;;;;;;;;;5072219;28;899;-72
2023/10/05 15:23:34;;;;;;;;;;;;;;;;;;5072296;28;1085;-69
2023/10/05 15:26:00;;;;;;;;;;;;;;;;;;5072778;28;1901;-72
2023/10/05 15:28:26;;;;;;;;;;;;;;;;;;5072804;28;949;-71
2023/10/05 15:30:52;;;;;;;;;;;;;;;;;;5072318;28;923;-68
2023/10/05 15:33:17;;;;;;;;;;;;;;;;;;5071931;28;1170;-68
2023/10/05 15:35:43;;;;;;;;;;;;;;;;;;5072109;28;940;-69
2023/10/05 15:38:08;;;;;;;;;;;;;;;;;;5072320;28;797;-68
2023/10/05 15:40:35;;;;;;;;;;;;;;;;;;5070803;28;1383;-71
2023/10/05 15:43:00;;;;;;;;;;;;;;;;;;5071277;28;805;-69
2023/10/05 15:45:27;;;;;;;;;;;;;;;;;;5070420;28;947;-70
2023/10/05 15:47:55;;;;;;;;;;;;;;;;;;5071802;28;1914;-69
2023/10/05 15:50:22;;;;;;;;;;;;;;;;;;5071954;28;892;-68
2023/10/05 15:52:52;;;;;;;;;;;;;;;;;;5072277;28;833;-68
2023/10/05 15:55:19;;;;;;;;;;;;;;;;;;5071301;28;991;-68
2023/10/05 15:57:47;;;;;;;;;;;;;;;;;;5071423;28;963;-68
2023/10/05 16:00:16;;;;;;;;;;;;;;;;;;5071577;28;883;-68
2023/10/05 16:02:42;;;;;;;;;;;;;;;;;;5072034;28;809;-68
2023/10/05 16:05:07;;;;;;;;;;;;;;;;;;5070735;28;900;-69
2023/10/05 16:07:33;;;;;;;;;;;;;;;;;;5071431;28;1910;-68
2023/10/05 16:10:00;;;;;;;;;;;;;;;;;;5070743;28;943;-68
2023/10/05 16:12:26;;;;;;;;;;;;;;;;;;5069055;28;938;-69
2023/10/05 16:14:53;;;;;;;;;;;;;;;;;;5069874;28;935;-69
2023/10/05 16:17:18;;;;;;;;;;;;;;;;;;5071307;28;859;-69
2023/10/05 16:19:43;;;;;;;;;;;;;;;;;;5053208;28;1290;-69
2023/10/05 16:22:12;;;;;;;;;;;;;;;;;;5071426;28;891;-69
2023/10/05 16:24:37;;;;;;;;;;;;;;;;;;5071154;28;844;-69
2023/10/05 16:27:03;;;;;;;;;;;;;;;;;;5069750;28;1906;-69
2023/10/05 16:29:28;;;;;;;;;;;;;;;;;;5071237;28;805;-69
2023/10/05 16:31:53;;;;;;;;;;;;;;;;;;5071311;28;901;-69
2023/10/05 16:34:18;;;;;;;;;;;;;;;;;;5071224;28;833;-69
2023/10/05 16:36:45;;;;;;;;;;;;;;;;;;5071663;28;872;-69
2023/10/05 16:39:11;;;;;;;;;;;;;;;;;;5071579;28;844;-69
2023/10/05 16:41:36;;;;;;;;;;;;;;;;;;5066370;28;1199;-69
2023/10/05 16:44:03;;;;;;;;;;;;;;;;;;5047770;28;1179;-69
2023/10/05 16:46:28;;;;;;;;;;;;;;;;;;5051618;28;1960;-68
2023/10/05 16:48:53;;;;;;;;;;;;;;;;;;5052205;28;849;-68
2023/10/05 16:51:19;;;;;;;;;;;;;;;;;;5052014;28;908;-68
2023/10/05 16:53:44;;;;;;;;;;;;;;;;;;5050266;28;881;-69
2023/10/05 16:56:09;;;;;;;;;;;;;;;;;;5051076;28;846;-69
2023/10/05 16:58:34;;;;;;;;;;;;;;;;;;5051010;28;876;-69
2023/10/05 17:01:00;;;;;;;;;;;;;;;;;;5050967;28;928;-69
2023/10/05 17:03:26;;;;;;;;;;;;;;;;;;5050726;28;965;-68
2023/10/05 17:05:55;;;;;;;;;;;;;;;;;;5050347;28;1890;-69
2023/10/05 17:08:21;;;;;;;;;;;;;;;;;;5049933;28;872;-69
2023/10/05 17:10:47;;;;;;;;;;;;;;;;;;5050689;28;903;-69
2023/10/05 17:13:12;;;;;;;;;;;;;;;;;;5050012;28;899;-68
2023/10/05 17:15:38;;;;;;;;;;;;;;;;;;5050616;28;927;-69
2023/10/05 17:18:04;;;;;;;;;;;;;;;;;;5050234;28;888;-69
2023/10/05 17:20:29;;;;;;;;;;;;;;;;;;5050366;28;872;-68
2023/10/05 17:22:54;;;;;;;;;;;;;;;;;;5053012;28;845;-68
2023/10/05 17:25:21;;;;;;;;;;;;;;;;;;5053685;28;900;-68
2023/10/05 17:27:47;;;;;;;;;;;;;;;;;;5053814;28;1909;-68
2023/10/05 17:30:13;;;;;;;;;;;;;;;;;;5053750;28;876;-68
2023/10/05 17:32:41;;;;;;;;;;;;;;;;;;5054181;28;892;-68